createdAt,value
2022-09-19T00:02:06.121Z,4.70
2022-09-19T00:04:32.570Z,4.69
2022-09-19T00:06:58.948Z,4.70
2022-09-19T00:09:25.317Z,4.47
2022-09-19T00:11:51.679Z,4.64
2022-09-19T00:14:18.031Z,4.47
2022-09-19T00:16:44.406Z,4.36
2022-09-19T00:19:10.817Z,4.36
2022-09-19T00:21:37.186Z,4.30
2022-09-19T00:24:03.543Z,4.12
2022-09-19T00:26:29.908Z,4.37
2022-09-19T00:28:56.274Z,4.13
2022-09-19T00:31:22.712Z,4.33
2022-09-19T00:33:49.103Z,3.92
2022-09-19T00:36:15.455Z,4.11
2022-09-19T00:38:41.830Z,4.28
2022-09-19T00:41:08.187Z,4.05
2022-09-19T00:43:34.550Z,3.75
2022-09-19T00:46:01.044Z,4.12
2022-09-19T00:48:27.449Z,3.82
2022-09-19T00:50:53.819Z,3.94
2022-09-19T00:53:20.192Z,4.13
2022-09-19T00:55:46.557Z,3.92
2022-09-19T00:58:12.931Z,3.43
2022-09-19T01:00:39.323Z,4.00
2022-09-19T01:03:05.802Z,3.92
2022-09-19T01:05:32.201Z,3.73
2022-09-19T01:07:58.559Z,3.96
2022-09-19T01:10:24.928Z,3.76
2022-09-19T01:12:51.297Z,3.80
2022-09-19T01:15:17.661Z,3.69
2022-09-19T01:17:44.037Z,3.53
2022-09-19T01:20:10.393Z,3.64
2022-09-19T01:22:36.757Z,3.67
2022-09-19T01:25:03.128Z,3.58
2022-09-19T01:27:29.493Z,3.58
2022-09-19T01:29:55.858Z,3.73
2022-09-19T01:32:22.233Z,3.32
2022-09-19T01:34:48.613Z,3.41
2022-09-19T01:37:14.968Z,3.63
2022-09-19T01:39:41.334Z,3.58
2022-09-19T01:42:07.695Z,3.41
2022-09-19T01:44:34.079Z,3.19
2022-09-19T01:47:00.427Z,3.42
2022-09-19T01:49:26.784Z,3.18
2022-09-19T01:51:53.148Z,3.00
2022-09-19T01:54:19.514Z,3.40
2022-09-19T01:56:45.879Z,2.94
2022-09-19T01:59:12.237Z,3.09
2022-09-19T02:01:38.629Z,3.18
2022-09-19T02:04:05.080Z,3.10
2022-09-19T02:06:31.522Z,3.34
2022-09-19T02:08:57.889Z,3.16
2022-09-19T02:11:24.301Z,3.08
2022-09-19T02:13:50.699Z,3.01
2022-09-19T02:16:17.187Z,3.05
2022-09-19T02:18:43.635Z,2.89
2022-09-19T02:21:09.987Z,2.89
2022-09-19T02:23:36.359Z,3.07
2022-09-19T02:26:02.718Z,2.82
2022-09-19T02:28:29.074Z,2.91
2022-09-19T02:30:55.444Z,2.82
2022-09-19T02:33:21.799Z,2.83
2022-09-19T02:35:48.163Z,2.97
2022-09-19T02:38:14.520Z,2.80
2022-09-19T02:40:40.889Z,2.94
2022-09-19T02:43:07.250Z,2.80
2022-09-19T02:45:33.671Z,2.66
2022-09-19T02:48:00.047Z,3.04
2022-09-19T02:50:26.413Z,2.85
2022-09-19T02:52:52.780Z,2.79
2022-09-19T02:55:19.141Z,2.77
2022-09-19T02:57:45.517Z,2.59
2022-09-19T03:00:11.884Z,2.81
2022-09-19T03:02:38.249Z,2.71
2022-09-19T03:05:04.610Z,2.42
2022-09-19T03:07:30.981Z,2.52
2022-09-19T03:09:57.357Z,2.49
2022-09-19T03:12:23.727Z,2.57
2022-09-19T03:14:50.093Z,2.61
2022-09-19T03:17:16.457Z,2.52
2022-09-19T03:19:42.833Z,2.44
2022-09-19T03:22:09.204Z,2.42
2022-09-19T03:24:35.564Z,2.40
2022-09-19T03:27:01.941Z,2.51
2022-09-19T03:29:28.309Z,2.46
2022-09-19T03:31:54.698Z,2.38
2022-09-19T03:34:21.125Z,2.39
2022-09-19T03:36:47.510Z,2.48
2022-09-19T03:39:13.869Z,2.43
2022-09-19T03:41:40.233Z,2.53
2022-09-19T03:44:06.684Z,2.42
2022-09-19T03:46:33.275Z,2.13
2022-09-19T03:48:59.668Z,2.24
2022-09-19T03:51:26.041Z,2.34
2022-09-19T03:53:52.401Z,2.28
2022-09-19T03:56:18.772Z,2.32
2022-09-19T03:58:45.141Z,2.15
2022-09-19T04:01:11.531Z,2.12
2022-09-19T04:03:37.922Z,2.08
2022-09-19T04:06:04.280Z,2.24
2022-09-19T04:08:30.653Z,2.16
2022-09-19T04:10:57.016Z,2.09
2022-09-19T04:13:23.371Z,2.11
2022-09-19T04:15:49.735Z,2.15
2022-09-19T04:18:16.144Z,2.09
2022-09-19T04:20:42.513Z,2.12
2022-09-19T04:23:08.871Z,2.09
2022-09-19T04:25:35.242Z,2.06
2022-09-19T04:28:01.612Z,2.05
2022-09-19T04:30:27.978Z,2.16
2022-09-19T04:32:54.334Z,2.01
2022-09-19T04:35:20.705Z,1.90
2022-09-19T04:37:47.067Z,1.89
2022-09-19T04:40:13.485Z,1.74
2022-09-19T04:42:39.897Z,1.85
2022-09-19T04:45:06.257Z,1.98
2022-09-19T04:47:32.622Z,1.96
2022-09-19T04:50:02.670Z,1.90
2022-09-19T04:52:30.867Z,1.80
2022-09-19T04:54:57.225Z,1.74
2022-09-19T04:57:23.587Z,1.77
2022-09-19T04:59:49.961Z,1.75
2022-09-19T05:02:16.341Z,1.79
2022-09-19T05:04:46.030Z,1.79
2022-09-19T05:07:12.579Z,1.79
2022-09-19T05:09:38.938Z,1.70
2022-09-19T05:12:05.311Z,1.78
2022-09-19T05:14:31.663Z,1.81
2022-09-19T05:16:58.023Z,1.69
2022-09-19T05:19:24.377Z,1.72
2022-09-19T05:21:50.735Z,1.66
2022-09-19T05:24:17.113Z,1.73
2022-09-19T05:26:43.473Z,1.65
2022-09-19T05:29:09.840Z,1.74
2022-09-19T05:31:36.245Z,1.69
2022-09-19T05:34:02.640Z,1.72
2022-09-19T05:36:29.016Z,1.68
2022-09-19T05:38:55.375Z,1.54
2022-09-19T05:41:21.737Z,1.56
2022-09-19T05:43:48.117Z,1.65
2022-09-19T05:46:14.477Z,1.74
2022-09-19T05:48:40.849Z,1.78
2022-09-19T05:51:07.203Z,1.60
2022-09-19T05:53:33.558Z,1.56
2022-09-19T05:55:59.921Z,1.65
2022-09-19T05:58:26.300Z,1.53
2022-09-19T06:00:52.695Z,1.60
2022-09-19T06:03:19.148Z,1.66
2022-09-19T06:05:45.535Z,1.33
2022-09-19T06:08:11.906Z,1.36
2022-09-19T06:10:38.277Z,1.37
2022-09-19T06:13:04.639Z,1.41
2022-09-19T06:15:30.989Z,1.22
2022-09-19T06:17:57.351Z,1.34
2022-09-19T06:20:23.716Z,1.36
2022-09-19T06:22:50.077Z,1.45
2022-09-19T06:25:16.451Z,1.32
2022-09-19T06:27:42.841Z,1.34
2022-09-19T06:30:09.191Z,1.23
2022-09-19T06:32:35.547Z,1.34
2022-09-19T06:35:02.017Z,1.36
2022-09-19T06:37:28.381Z,1.55
2022-09-19T06:39:54.777Z,1.44
2022-09-19T06:42:21.182Z,1.45
2022-09-19T06:44:47.553Z,1.55
2022-09-19T06:47:13.913Z,1.41
2022-09-19T06:49:40.291Z,1.22
2022-09-19T06:52:06.783Z,1.31
2022-09-19T06:54:33.141Z,1.35
2022-09-19T06:56:59.597Z,1.38
2022-09-19T06:59:25.977Z,1.16
2022-09-19T07:01:52.352Z,1.34
2022-09-19T07:04:18.748Z,1.39
2022-09-19T07:06:45.499Z,1.28
2022-09-19T07:09:11.877Z,1.39
2022-09-19T07:11:38.248Z,1.29
2022-09-19T07:14:04.591Z,1.22
2022-09-19T07:16:30.968Z,1.28
2022-09-19T07:18:57.443Z,1.13
2022-09-19T07:21:25.399Z,1.23
2022-09-19T07:23:51.906Z,1.24
2022-09-19T07:26:18.269Z,1.19
2022-09-19T07:28:44.618Z,1.29
2022-09-19T07:31:10.967Z,1.17
2022-09-19T07:33:37.323Z,1.13
2022-09-19T07:36:07.928Z,1.12
2022-09-19T07:38:36.043Z,1.12
2022-09-19T07:41:02.490Z,1.17
2022-09-19T07:43:28.891Z,1.19
2022-09-19T07:45:55.365Z,1.06
2022-09-19T07:48:21.798Z,1.05
2022-09-19T07:50:52.158Z,1.08
2022-09-19T07:53:20.401Z,1.12
2022-09-19T07:55:46.752Z,0.95
2022-09-19T07:58:13.107Z,0.93
2022-09-19T08:00:39.517Z,0.95
2022-09-19T08:03:05.918Z,1.05
2022-09-19T08:05:32.278Z,0.99
2022-09-19T08:07:58.652Z,1.05
2022-09-19T08:10:25.027Z,1.00
2022-09-19T08:12:51.381Z,1.00
2022-09-19T08:15:17.740Z,0.98
2022-09-19T08:17:44.092Z,1.03
2022-09-19T08:20:10.455Z,0.94
2022-09-19T08:22:36.833Z,0.95
2022-09-19T08:25:03.189Z,0.87
2022-09-19T08:27:29.562Z,1.00
2022-09-19T08:29:55.941Z,0.89
2022-09-19T08:32:22.307Z,0.95
2022-09-19T08:34:48.680Z,0.93
2022-09-19T08:37:15.040Z,0.86
2022-09-19T08:39:41.452Z,0.88
2022-09-19T08:42:07.800Z,0.89
2022-09-19T08:44:34.157Z,0.93
2022-09-19T08:47:00.508Z,0.94
2022-09-19T08:49:26.857Z,0.86
2022-09-19T08:51:53.218Z,0.88
2022-09-19T08:54:19.597Z,0.87
2022-09-19T08:56:45.956Z,0.86
2022-09-19T08:59:12.329Z,0.97
2022-09-19T09:01:38.788Z,0.82
2022-09-19T09:04:05.312Z,0.92
2022-09-19T09:06:31.881Z,0.80
2022-09-19T09:08:58.421Z,0.77
2022-09-19T09:11:24.810Z,0.77
2022-09-19T09:13:59.966Z,0.79
2022-09-19T09:16:27.073Z,0.71
2022-09-19T09:18:53.528Z,0.82
2022-09-19T09:21:22.862Z,0.82
2022-09-19T09:23:49.942Z,0.89
2022-09-19T09:26:16.394Z,0.77
2022-09-19T09:28:42.746Z,0.79
2022-09-19T09:31:09.108Z,0.79
2022-09-19T09:33:35.475Z,0.80
2022-09-19T09:36:01.820Z,0.82
2022-09-19T09:38:28.170Z,0.83
2022-09-19T09:40:54.538Z,0.86
2022-09-19T09:43:20.901Z,0.80
2022-09-19T09:45:47.313Z,0.69
2022-09-19T09:48:13.726Z,0.83
2022-09-19T09:50:40.088Z,0.91
2022-09-19T09:53:06.451Z,0.82
2022-09-19T09:55:32.973Z,0.70
2022-09-19T09:57:59.336Z,0.78
2022-09-19T10:00:25.691Z,0.86
2022-09-19T10:02:52.058Z,0.73
2022-09-19T10:05:18.417Z,0.82
2022-09-19T10:07:44.798Z,0.76
2022-09-19T10:10:11.154Z,0.74
2022-09-19T10:12:50.306Z,0.72
2022-09-19T10:15:20.907Z,0.67
2022-09-19T10:17:47.282Z,0.81
2022-09-19T10:20:13.647Z,0.74
2022-09-19T10:22:40.004Z,0.68
2022-09-19T10:25:06.379Z,0.74
2022-09-19T10:27:32.742Z,0.81
2022-09-19T10:29:59.131Z,0.71
2022-09-19T10:32:25.547Z,0.73
2022-09-19T10:34:51.952Z,0.76
2022-09-19T10:37:18.336Z,0.72
2022-09-19T10:39:44.697Z,0.73
2022-09-19T10:42:11.085Z,0.65
2022-09-19T10:44:37.436Z,0.63
2022-09-19T10:47:03.795Z,0.58
2022-09-19T10:49:30.156Z,0.54
2022-09-19T10:51:56.504Z,0.52
2022-09-19T10:54:22.860Z,0.61
2022-09-19T10:56:49.229Z,0.61
2022-09-19T10:59:15.605Z,0.54
2022-09-19T11:01:41.961Z,0.58
2022-09-19T11:04:08.361Z,0.62
2022-09-19T11:06:34.760Z,0.62
2022-09-19T11:09:01.134Z,0.63
2022-09-19T11:11:27.504Z,0.58
2022-09-19T11:13:53.938Z,0.63
2022-09-19T11:16:20.442Z,0.54
2022-09-19T11:18:46.840Z,0.66
2022-09-19T11:21:13.212Z,0.64
2022-09-19T11:23:39.561Z,0.63
2022-09-19T11:26:05.923Z,0.49
2022-09-19T11:28:32.299Z,0.60
2022-09-19T11:30:58.674Z,0.69
2022-09-19T11:36:11.487Z,0.64
2022-09-19T11:41:24.278Z,0.59
2022-09-19T11:43:50.659Z,0.61
2022-09-19T11:46:17.133Z,0.67
2022-09-19T11:48:43.569Z,0.73
2022-09-19T11:51:09.928Z,0.53
2022-09-19T11:53:36.283Z,0.59
2022-09-19T11:56:02.623Z,0.62
2022-09-19T11:58:29.107Z,0.57
2022-09-19T12:00:55.495Z,0.78
2022-09-19T12:03:21.956Z,0.59
2022-09-19T12:05:48.425Z,0.57
2022-09-19T12:08:14.793Z,0.56
2022-09-19T12:10:41.167Z,0.51
2022-09-19T12:13:07.516Z,0.51
2022-09-19T12:15:33.877Z,0.67
2022-09-19T12:18:03.723Z,0.57
2022-09-19T12:20:30.329Z,0.60
2022-09-19T12:22:56.941Z,0.44
2022-09-19T12:25:23.350Z,0.46
2022-09-19T12:27:49.706Z,0.55
2022-09-19T12:30:16.077Z,0.54
2022-09-19T12:32:42.435Z,0.56
2022-09-19T12:35:08.811Z,0.56
2022-09-19T12:37:40.138Z,0.50
2022-09-19T12:40:06.988Z,0.67
2022-09-19T12:42:33.371Z,0.39
2022-09-19T12:44:59.732Z,0.59
2022-09-19T12:47:26.089Z,0.53
2022-09-19T12:49:52.455Z,0.53
2022-09-19T12:52:18.812Z,0.52
2022-09-19T12:54:45.194Z,0.55
2022-09-19T12:57:11.556Z,0.57
2022-09-19T12:59:37.910Z,0.53
2022-09-19T13:02:04.330Z,0.48
2022-09-19T13:04:30.725Z,0.62
2022-09-19T13:06:57.103Z,0.53
2022-09-19T13:09:23.471Z,0.61
2022-09-19T13:11:49.829Z,0.52
2022-09-19T13:14:16.203Z,0.60
2022-09-19T13:16:42.626Z,0.45
2022-09-19T13:19:08.997Z,0.44
2022-09-19T13:21:35.364Z,0.52
2022-09-19T13:24:01.727Z,0.54
2022-09-19T13:26:28.076Z,0.53
2022-09-19T13:28:54.432Z,0.53
2022-09-19T13:31:20.833Z,0.52
2022-09-19T13:33:47.234Z,0.46
2022-09-19T13:36:13.601Z,0.41
2022-09-19T13:38:39.959Z,0.50
2022-09-19T13:41:06.338Z,0.51
2022-09-19T13:43:32.708Z,0.56
2022-09-19T13:46:04.534Z,0.56
2022-09-19T13:48:32.911Z,0.54
2022-09-19T13:50:59.270Z,0.55
2022-09-19T13:53:25.625Z,0.45
2022-09-19T13:55:52.001Z,0.58
2022-09-19T13:58:18.373Z,0.40
2022-09-19T14:00:44.800Z,0.50
2022-09-19T14:03:11.207Z,0.51
2022-09-19T14:05:37.566Z,0.57
2022-09-19T14:10:50.255Z,0.48
2022-09-19T14:13:16.613Z,0.56
2022-09-19T14:15:42.967Z,0.57
2022-09-19T14:18:09.320Z,0.50
2022-09-19T14:20:35.694Z,0.42
2022-09-19T14:23:02.058Z,0.56
2022-09-19T14:25:28.416Z,0.47
2022-09-19T14:27:54.774Z,0.50
2022-09-19T14:30:21.160Z,0.49
2022-09-19T14:32:47.518Z,0.49
2022-09-19T14:35:13.940Z,0.57
2022-09-19T14:37:40.291Z,0.50
2022-09-19T14:40:06.677Z,0.56
2022-09-19T14:42:33.083Z,0.49
2022-09-19T14:45:03.729Z,0.44
2022-09-19T14:47:30.653Z,0.60
2022-09-19T14:49:59.761Z,0.43
2022-09-19T14:52:26.125Z,0.47
2022-09-19T14:54:52.504Z,0.49
2022-09-19T14:57:18.886Z,0.45
2022-09-19T14:59:45.238Z,0.58
2022-09-19T15:02:11.651Z,0.51
2022-09-19T15:04:38.022Z,0.42
2022-09-19T15:07:04.384Z,0.50
2022-09-19T15:09:30.729Z,0.44
2022-09-19T15:11:57.091Z,0.44
2022-09-19T15:14:23.457Z,0.50
2022-09-19T15:16:49.906Z,0.45
2022-09-19T15:19:16.311Z,0.51
2022-09-19T15:21:42.669Z,0.49
2022-09-19T15:24:09.046Z,0.47
2022-09-19T15:26:35.433Z,0.44
2022-09-19T15:29:01.802Z,0.40
2022-09-19T15:31:28.202Z,0.51
2022-09-19T15:33:54.598Z,0.48
2022-09-19T15:36:20.947Z,0.43
2022-09-19T15:38:47.318Z,0.49
2022-09-19T15:41:13.693Z,0.43
2022-09-19T15:43:40.059Z,0.52
2022-09-19T15:46:06.488Z,0.45
2022-09-19T15:48:32.882Z,0.51
2022-09-19T15:50:59.284Z,0.46
2022-09-19T15:53:25.643Z,0.49
2022-09-19T15:55:51.988Z,0.54
2022-09-19T15:58:18.358Z,0.56
2022-09-19T16:00:44.765Z,0.47
2022-09-19T16:03:11.161Z,0.56
2022-09-19T16:05:37.538Z,0.53
2022-09-19T16:08:03.883Z,0.48
2022-09-19T16:10:52.225Z,0.45
2022-09-19T16:13:16.592Z,0.53
2022-09-19T16:15:42.957Z,0.44
2022-09-19T16:18:09.337Z,0.38
2022-09-19T16:20:35.688Z,0.48
2022-09-19T16:23:02.039Z,0.57
2022-09-19T16:25:28.447Z,0.55
2022-09-19T16:27:54.821Z,0.52
2022-09-19T16:30:21.183Z,0.48
2022-09-19T16:32:47.541Z,0.51
2022-09-19T16:35:13.907Z,0.52
2022-09-19T16:37:40.276Z,0.47
2022-09-19T16:40:06.754Z,0.50
2022-09-19T16:42:33.153Z,0.69
2022-09-19T16:44:59.513Z,0.69
2022-09-19T16:47:25.898Z,0.64
2022-09-19T16:49:52.285Z,0.60
2022-09-19T16:52:18.681Z,0.67
2022-09-19T16:54:45.037Z,0.56
2022-09-19T16:57:11.399Z,0.60
2022-09-19T16:59:37.765Z,0.58
2022-09-19T17:02:04.111Z,0.58
2022-09-19T17:04:30.532Z,0.62
2022-09-19T17:06:56.920Z,0.48
2022-09-19T17:09:23.288Z,0.62
2022-09-19T17:11:49.640Z,0.56
2022-09-19T17:14:16.000Z,0.52
2022-09-19T17:16:42.388Z,0.56
2022-09-19T17:19:08.795Z,0.61
2022-09-19T17:21:35.154Z,0.60
2022-09-19T17:24:01.507Z,0.59
2022-09-19T17:26:27.861Z,0.53
2022-09-19T17:28:54.277Z,0.59
2022-09-19T17:31:20.732Z,0.49
2022-09-19T17:33:47.129Z,0.53
2022-09-19T17:36:13.480Z,0.55
2022-09-19T17:38:39.844Z,0.53
2022-09-19T17:41:06.221Z,0.50
2022-09-19T17:43:32.609Z,0.55
2022-09-19T17:45:59.049Z,0.63
2022-09-19T17:48:25.462Z,0.61
2022-09-19T17:50:51.847Z,0.53
2022-09-19T17:53:18.199Z,0.51
2022-09-19T17:55:44.603Z,0.65
2022-09-19T17:58:10.963Z,0.54
2022-09-19T18:00:37.371Z,0.48
2022-09-19T18:03:03.828Z,0.51
2022-09-19T18:05:30.204Z,0.57
2022-09-19T18:07:56.554Z,0.54
2022-09-19T18:10:22.927Z,0.57
2022-09-19T18:12:49.271Z,0.55
2022-09-19T18:15:15.634Z,0.54
2022-09-19T18:17:42.001Z,0.47
2022-09-19T18:20:08.367Z,0.45
2022-09-19T18:22:34.722Z,0.49
2022-09-19T18:25:01.075Z,0.53
2022-09-19T18:27:27.442Z,0.49
2022-09-19T18:29:53.824Z,0.46
2022-09-19T18:32:20.278Z,0.47
2022-09-19T18:34:46.658Z,0.49
2022-09-19T18:37:13.162Z,0.53
2022-09-19T18:39:39.517Z,0.43
2022-09-19T18:42:05.882Z,0.58
2022-09-19T18:44:32.241Z,0.51
2022-09-19T18:46:58.605Z,0.50
2022-09-19T18:49:24.948Z,0.56
2022-09-19T18:51:51.317Z,0.57
2022-09-19T18:54:21.559Z,0.57
2022-09-19T18:56:48.174Z,0.50
2022-09-19T18:59:14.542Z,0.53
2022-09-19T19:01:40.980Z,0.48
2022-09-19T19:04:07.577Z,0.48
2022-09-19T19:06:34.016Z,0.53
2022-09-19T19:09:00.389Z,0.55
2022-09-19T19:11:26.740Z,0.55
2022-09-19T19:13:53.174Z,0.55
2022-09-19T19:16:19.603Z,0.53
2022-09-19T19:18:45.956Z,0.55
2022-09-19T19:21:12.324Z,0.51
2022-09-19T19:23:38.689Z,0.53
2022-09-19T19:26:05.044Z,0.46
2022-09-19T19:28:31.391Z,0.47
2022-09-19T19:30:57.749Z,0.46
2022-09-19T19:33:24.113Z,0.53
2022-09-19T19:35:50.480Z,0.61
2022-09-19T19:38:16.835Z,0.55
2022-09-19T19:40:43.976Z,0.38
2022-09-19T19:43:10.494Z,0.53
2022-09-19T19:45:36.877Z,0.59
2022-09-19T19:48:03.258Z,0.49
2022-09-19T19:50:29.622Z,0.47
2022-09-19T19:52:55.975Z,0.49
2022-09-19T19:55:22.339Z,0.47
2022-09-19T19:57:48.700Z,0.55
2022-09-19T20:00:15.063Z,0.45
2022-09-19T20:02:41.438Z,0.51
2022-09-19T20:05:07.789Z,0.49
2022-09-19T20:07:34.139Z,0.52
2022-09-19T20:10:00.513Z,0.54
2022-09-19T20:12:26.869Z,0.44
2022-09-19T20:14:53.231Z,0.45
2022-09-19T20:17:19.584Z,0.41
2022-09-19T20:19:45.942Z,0.48
2022-09-19T20:22:12.327Z,0.53
2022-09-19T20:24:40.665Z,0.60
2022-09-19T20:27:07.248Z,0.52
2022-09-19T20:29:33.604Z,0.54
2022-09-19T20:32:00.005Z,0.52
2022-09-19T20:34:26.407Z,0.44
2022-09-19T20:36:52.773Z,0.49
2022-09-19T20:39:19.155Z,0.51
2022-09-19T20:41:45.519Z,0.56
2022-09-19T20:44:11.874Z,0.53
2022-09-19T20:46:38.249Z,0.57
2022-09-19T20:49:04.718Z,0.52
2022-09-19T20:51:31.136Z,0.51
2022-09-19T20:53:57.493Z,0.50
2022-09-19T20:56:23.865Z,0.49
2022-09-19T20:58:50.237Z,0.48
2022-09-19T21:01:16.637Z,0.54
2022-09-19T21:03:43.029Z,0.51
2022-09-19T21:06:09.401Z,0.54
2022-09-19T21:08:35.762Z,0.53
2022-09-19T21:11:02.113Z,0.46
2022-09-19T21:13:28.464Z,0.52
2022-09-19T21:15:54.871Z,0.54
2022-09-19T21:18:21.304Z,0.54
2022-09-19T21:20:47.665Z,0.51
2022-09-19T21:23:14.023Z,0.64
2022-09-19T21:25:40.385Z,0.60
2022-09-19T21:28:06.752Z,0.67
2022-09-19T21:30:33.115Z,0.58
2022-09-19T21:32:59.478Z,0.60
2022-09-19T21:35:25.861Z,0.67
2022-09-19T21:37:52.221Z,0.57
2022-09-19T21:40:18.629Z,0.56
2022-09-19T21:42:45.013Z,0.65
2022-09-19T21:45:11.381Z,0.56
2022-09-19T21:47:37.745Z,0.53
2022-09-19T21:50:04.101Z,0.60
2022-09-19T21:52:30.476Z,0.62
2022-09-19T21:55:01.962Z,0.65
2022-09-19T21:57:29.092Z,0.48
2022-09-19T21:59:55.451Z,0.68
2022-09-19T22:02:21.868Z,0.67
2022-09-19T22:04:48.297Z,0.56
2022-09-19T22:07:14.661Z,0.62
2022-09-19T22:09:41.029Z,0.65
2022-09-19T22:12:07.441Z,0.63
2022-09-19T22:14:33.797Z,0.52
2022-09-19T22:17:00.268Z,0.70
2022-09-19T22:19:26.666Z,0.60
2022-09-19T22:21:53.054Z,0.61
2022-09-19T22:24:19.406Z,0.59
2022-09-19T22:26:45.767Z,0.56
2022-09-19T22:29:12.126Z,0.60
2022-09-19T22:31:38.534Z,0.68
2022-09-19T22:34:05.068Z,0.62
2022-09-19T22:36:31.698Z,0.62
2022-09-19T22:38:58.393Z,0.57
2022-09-19T22:41:24.748Z,0.65
2022-09-19T22:43:51.111Z,0.59
2022-09-19T22:46:17.523Z,0.55
2022-09-19T22:48:43.918Z,0.62
2022-09-19T22:51:10.274Z,0.58
2022-09-19T22:53:36.641Z,0.55
2022-09-19T22:56:03.018Z,0.61
2022-09-19T22:58:29.387Z,0.69
2022-09-19T23:00:55.746Z,0.68
2022-09-19T23:03:22.166Z,0.65
2022-09-19T23:05:48.584Z,0.58
2022-09-19T23:08:14.945Z,0.67
2022-09-19T23:10:41.309Z,0.65
2022-09-19T23:13:07.686Z,0.62
2022-09-19T23:15:34.054Z,0.58
2022-09-19T23:18:00.403Z,0.59
2022-09-19T23:20:26.764Z,0.58
2022-09-19T23:22:53.115Z,0.56
2022-09-19T23:25:19.489Z,0.67
2022-09-19T23:27:45.854Z,0.60
2022-09-19T23:30:12.225Z,0.53
2022-09-19T23:32:38.584Z,0.64
2022-09-19T23:35:04.946Z,0.54
2022-09-19T23:37:31.313Z,0.62
2022-09-19T23:39:57.702Z,0.61
2022-09-19T23:42:24.082Z,0.62
2022-09-19T23:44:50.446Z,0.62
2022-09-19T23:47:16.805Z,0.71
2022-09-19T23:49:43.183Z,0.57
2022-09-19T23:52:09.554Z,0.54
2022-09-19T23:54:35.909Z,0.58
2022-09-19T23:57:02.374Z,0.68
2022-09-19T23:59:28.719Z,0.67
